Time;durP1;ratioP1;P1;durP2;ratioP2;P2;SDS_P1;SDS_P2;PMS_P1;PMS_P2;Temp;Humidity;BMP_temperature;BMP_pressure;BME280_temperature;BME280_humidity;BME280_pressure;Samples;Min_cycle;Max_cycle;Signal;HPM_P1;HPM_P2
2021/11/09 00:01:11;;;;;;;19.43;5.57;;;8.30;93.90;;;;;;5055159;28;20223;-91
2021/11/09 00:03:45;;;;;;;29.43;5.97;;;8.30;93.90;;;;;;5036816;28;20176;-91
2021/11/09 00:08:43;;;;;;;20.50;5.70;;;8.30;94.10;;;;;;5054329;28;20227;-92
2021/11/09 00:11:09;;;;;;;26.10;6.13;;;8.30;94.20;;;;;;5036748;28;20226;-92
2021/11/09 00:13:34;;;;;;;27.00;5.90;;;8.30;94.10;;;;;;5036908;28;20172;-91
2021/11/09 00:16:00;;;;;;;25.50;6.23;;;8.30;94.10;;;;;;5036719;28;20172;-91
2021/11/09 00:18:26;;;;;;;28.50;4.97;;;8.30;94.10;;;;;;5036355;28;20195;-91
2021/11/09 00:20:51;;;;;;;24.93;5.57;;;8.30;94.00;;;;;;5036727;28;20172;-90
2021/11/09 00:23:18;;;;;;;23.03;4.90;;;8.30;93.90;;;;;;5036651;28;20172;-91
2021/11/09 00:25:43;;;;;;;22.37;5.70;;;8.30;93.90;;;;;;5036235;28;20361;-91
2021/11/09 00:28:11;;;;;;;28.93;6.53;;;8.30;93.80;;;;;;5036161;28;20211;-89
2021/11/09 00:30:37;;;;;;;31.87;5.07;;;8.20;93.70;;;;;;5036154;28;20212;-91
2021/11/09 00:33:03;;;;;;;28.77;5.57;;;8.30;93.70;;;;;;5036081;28;20222;-91
2021/11/09 00:35:30;;;;;;;25.27;5.33;;;8.20;93.70;;;;;;5053883;28;20172;-89
2021/11/09 00:37:57;;;;;;;29.73;5.83;;;8.30;93.70;;;;;;5036606;28;20263;-90
2021/11/09 00:40:26;;;;;;;24.13;4.33;;;8.30;93.70;;;;;;5053825;28;20187;-90
2021/11/09 00:42:51;;;;;;;25.23;5.03;;;8.30;93.70;;;;;;5036020;28;20176;-89
2021/11/09 00:45:17;;;;;;;23.50;5.03;;;8.30;93.70;;;;;;5035889;28;20267;-91
2021/11/09 00:47:44;;;;;;;21.43;5.40;;;8.30;93.70;;;;;;5053654;28;20195;-92
2021/11/09 00:50:12;;;;;;;23.43;4.27;;;8.30;93.70;;;;;;5036245;28;20253;-91
2021/11/09 00:52:38;;;;;;;32.57;6.03;;;8.20;93.50;;;;;;5038916;28;20172;-91
2021/11/09 00:55:05;;;;;;;19.97;4.77;;;8.00;93.50;;;;;;5038376;28;20211;-90
2021/11/09 00:57:30;;;;;;;16.50;3.80;;;7.90;93.40;;;;;;5038053;28;20206;-91
2021/11/09 00:59:56;;;;;;;27.50;5.07;;;7.90;93.50;;;;;;5055168;28;20188;-91
2021/11/09 01:02:22;;;;;;;20.97;4.83;;;7.80;93.50;;;;;;5037262;28;20179;-91
2021/11/09 01:04:48;;;;;;;17.63;4.97;;;7.80;93.60;;;;;;5036093;28;20267;-90
2021/11/09 01:07:14;;;;;;;30.00;5.00;;;7.80;93.60;;;;;;5035994;28;20636;-92
2021/11/09 01:09:39;;;;;;;25.93;5.63;;;7.70;93.60;;;;;;5035612;28;20199;-90
2021/11/09 01:12:06;;;;;;;24.17;4.77;;;7.70;93.70;;;;;;5036289;28;20168;-91
2021/11/09 01:14:32;;;;;;;28.57;5.53;;;7.70;93.70;;;;;;5035386;28;20172;-90
2021/11/09 01:16:58;;;;;;;23.87;4.77;;;7.70;93.80;;;;;;5035450;28;20265;-90
2021/11/09 01:19:24;;;;;;;19.10;4.30;;;7.70;93.80;;;;;;5035015;28;20257;-90
2021/11/09 01:21:51;;;;;;;20.50;6.20;;;7.80;93.80;;;;;;5035751;28;20171;-90
2021/11/09 01:24:18;;;;;;;18.87;4.00;;;7.70;93.80;;;;;;5036132;28;20172;-89
2021/11/09 01:26:45;;;;;;;29.73;4.53;;;7.70;93.80;;;;;;5035241;28;20363;-91
2021/11/09 01:29:13;;;;;;;27.90;4.47;;;7.80;93.80;;;;;;5053292;28;20217;-90
2021/11/09 01:31:40;;;;;;;23.30;4.20;;;7.80;93.80;;;;;;5035729;28;20176;-91
2021/11/09 01:34:06;;;;;;;30.03;4.73;;;7.90;93.80;;;;;;5035809;28;20518;-91
2021/11/09 01:36:32;;;;;;;32.03;5.10;;;7.90;93.80;;;;;;5035381;28;20544;-92
2021/11/09 01:38:58;;;;;;;18.00;5.13;;;7.90;93.80;;;;;;5035522;28;20287;-91
2021/11/09 01:41:25;;;;;;;21.97;4.93;;;7.90;93.80;;;;;;5035409;28;20180;-90
2021/11/09 01:43:52;;;;;;;24.10;5.20;;;7.90;93.90;;;;;;5035204;28;20180;-91
2021/11/09 01:46:18;;;;;;;28.13;5.57;;;7.90;93.80;;;;;;5035128;28;20176;-90
2021/11/09 01:48:45;;;;;;;24.63;6.40;;;7.90;93.80;;;;;;5035801;28;20240;-91
2021/11/09 01:51:13;;;;;;;33.30;6.17;;;7.90;93.80;;;;;;5035154;28;20614;-90
2021/11/09 01:53:41;;;;;;;27.50;4.97;;;8.00;93.80;;;;;;5035877;28;20593;-92
2021/11/09 01:56:12;;;;;;;24.63;4.17;;;7.90;93.80;;;;;;5035050;28;20175;-91
2021/11/09 01:58:38;;;;;;;36.47;5.60;;;7.90;93.80;;;;;;5035022;28;20196;-91
2021/11/09 02:01:13;;;;;;;32.57;4.33;;;7.90;93.80;;;;;;5035032;28;20191;-91
2021/11/09 02:03:43;;;;;;;20.23;4.13;;;8.00;93.80;;;;;;5035076;28;20263;-92
2021/11/09 02:06:11;;;;;;;24.93;5.30;;;8.00;93.60;;;;;;5053372;28;20157;-91
2021/11/09 02:08:37;;;;;;;28.93;5.90;;;8.00;93.60;;;;;;5034690;28;20208;-92
2021/11/09 02:11:03;;;;;;;28.70;4.40;;;7.90;93.60;;;;;;5053017;28;20183;-91
2021/11/09 02:13:29;;;;;;;28.37;4.17;;;7.90;93.60;;;;;;5034786;28;20172;-91
2021/11/09 02:15:55;;;;;;;19.33;4.10;;;8.00;93.60;;;;;;5034898;28;20679;-90
2021/11/09 02:18:22;;;;;;;25.67;5.57;;;8.20;93.40;;;;;;5034658;28;20184;-90
2021/11/09 02:20:57;;;;;;;25.33;4.97;;;8.30;93.20;;;;;;5052626;28;20172;-90
2021/11/09 02:23:27;;;;;;;23.03;4.17;;;8.30;93.00;;;;;;5034859;28;20175;-91
2021/11/09 02:25:53;;;;;;;18.77;3.47;;;8.20;92.90;;;;;;5034827;28;20168;-91
2021/11/09 02:28:19;;;;;;;24.23;5.00;;;8.20;92.90;;;;;;5034659;28;20210;-88
2021/11/09 02:30:45;;;;;;;22.60;4.87;;;8.30;92.80;;;;;;5036315;28;20172;-91
2021/11/09 02:33:11;;;;;;;27.70;5.07;;;8.30;92.80;;;;;;5038333;28;20188;-89
2021/11/09 02:35:37;;;;;;;33.10;5.20;;;8.20;92.80;;;;;;5038277;28;20528;-90
2021/11/09 02:38:05;;;;;;;23.37;4.10;;;8.30;92.70;;;;;;5038575;28;20597;-91
2021/11/09 02:40:31;;;;;;;30.60;5.17;;;8.20;92.80;;;;;;5056316;28;20194;-89
2021/11/09 02:43:05;;;;;;;22.60;5.23;;;8.20;92.80;;;;;;5038202;28;20176;-90
2021/11/09 02:45:45;;;;;;;25.90;4.60;;;8.20;92.90;;;;;;5038098;28;20689;-91
2021/11/09 02:48:15;;;;;;;34.70;4.67;;;8.20;92.90;;;;;;5037942;28;20196;-89
2021/11/09 02:50:48;;;;;;;25.73;5.03;;;8.20;93.00;;;;;;5038525;28;20202;-91
2021/11/09 02:53:37;;;;;;;31.33;5.10;;;8.20;93.00;;;;;;5038128;28;20160;-89
2021/11/09 03:01:15;;;;;;;30.00;5.70;;;8.10;93.30;;;;;;5055981;28;20241;-90
2021/11/09 03:03:53;;;;;;;29.63;4.63;;;8.10;93.30;;;;;;5055994;28;20172;-90
2021/11/09 03:06:36;;;;;;;22.73;4.50;;;8.10;93.40;;;;;;5037669;28;20164;-91
2021/11/09 03:09:15;;;;;;;26.37;4.90;;;8.10;93.50;;;;;;5055745;28;20200;-91
2021/11/09 03:11:56;;;;;;;23.37;5.20;;;8.10;93.50;;;;;;5037622;28;20164;-91
2021/11/09 03:14:23;;;;;;;21.67;4.93;;;8.20;93.50;;;;;;5037632;28;20217;-91
2021/11/09 03:16:49;;;;;;;22.43;4.87;;;8.20;93.60;;;;;;5037435;28;20225;-89
2021/11/09 03:19:25;;;;;;;24.60;5.57;;;8.20;93.60;;;;;;5037384;28;20212;-91
2021/11/09 03:46:37;;;;;;;27.47;7.87;;;8.00;94.20;;;;;;5054861;28;20178;-91
2021/11/09 03:49:06;;;;;;;15.23;7.27;;;8.00;94.20;;;;;;5054648;28;20199;-92
2021/11/09 03:51:33;;;;;;;25.00;9.40;;;8.10;94.20;;;;;;5037186;28;20225;-92
2021/11/09 03:54:01;;;;;;;24.80;8.47;;;8.10;94.20;;;;;;5036906;28;20195;-91
2021/11/09 03:56:51;;;;;;;18.60;7.43;;;8.10;94.20;;;;;;5037030;28;20217;-90
2021/11/09 03:59:22;;;;;;;28.40;7.70;;;8.10;94.30;;;;;;5053745;28;20215;-90
2021/11/09 04:04:30;;;;;;;21.87;7.57;;;8.10;94.20;;;;;;5054523;28;20178;-91
2021/11/09 04:07:12;;;;;;;27.93;7.57;;;8.00;94.20;;;;;;5036582;28;20255;-91
2021/11/09 04:09:49;;;;;;;22.00;6.73;;;8.00;94.20;;;;;;5037004;28;20192;-90
2021/11/09 04:15:30;;;;;;;24.07;8.03;;;8.00;94.20;;;;;;5054603;28;20174;-92
2021/11/09 04:50:35;;;;;;;14.57;3.43;;;7.90;93.70;;;;;;5053910;28;20202;-92
2021/11/09 05:01:34;;;;;;;13.63;3.50;;;7.90;93.60;;;;;;5054162;28;20187;-89
2021/11/09 05:09:37;;;;;;;18.13;5.13;;;7.90;94.10;;;;;;5053306;28;20211;-92
2021/11/09 05:12:03;;;;;;;27.27;5.27;;;7.90;94.20;;;;;;5035558;28;20167;-91
2021/11/09 05:14:30;;;;;;;12.97;4.93;;;8.00;94.20;;;;;;5035852;28;20600;-90
2021/11/09 05:16:56;;;;;;;23.73;7.47;;;8.00;94.20;;;;;;5053458;28;20160;-91
2021/11/09 05:19:21;;;;;;;16.47;6.93;;;8.00;94.30;;;;;;5035922;28;20718;-92
2021/11/09 05:21:47;;;;;;;21.30;6.73;;;8.00;94.30;;;;;;5036549;28;20183;-91
2021/11/09 05:24:13;;;;;;;19.33;7.10;;;8.00;94.30;;;;;;5054273;28;20178;-92
2021/11/09 05:26:42;;;;;;;19.83;7.67;;;8.00;94.40;;;;;;5036148;28;20180;-91
2021/11/09 05:29:10;;;;;;;16.20;7.73;;;8.00;94.40;;;;;;5035886;28;20215;-90
2021/11/09 05:31:36;;;;;;;18.27;9.33;;;8.00;94.30;;;;;;5036331;28;20590;-91
2021/11/09 05:34:02;;;;;;;21.77;9.50;;;8.00;94.30;;;;;;5035984;28;20218;-89
2021/11/09 05:36:33;;;;;;;16.67;9.17;;;8.00;94.30;;;;;;5054005;28;20192;-91
2021/11/09 05:39:09;;;;;;;17.47;8.07;;;8.00;94.30;;;;;;5037190;28;20591;-91
2021/11/09 05:41:37;;;;;;;16.77;9.10;;;8.10;94.30;;;;;;5037105;28;20508;-91
2021/11/09 05:44:04;;;;;;;19.13;9.60;;;8.00;94.20;;;;;;5036023;28;20602;-92
2021/11/09 05:46:30;;;;;;;18.00;9.27;;;8.00;94.30;;;;;;5036954;28;20226;-92
2021/11/09 05:48:56;;;;;;;18.97;9.53;;;8.00;94.30;;;;;;5036235;28;20207;-90
2021/11/09 05:51:23;;;;;;;18.70;10.57;;;8.10;94.20;;;;;;5036464;28;20176;-92
2021/11/09 05:53:49;;;;;;;18.30;9.50;;;8.10;94.10;;;;;;5035945;28;20237;-92
2021/11/09 05:56:15;;;;;;;18.93;9.23;;;8.10;94.10;;;;;;5036219;28;20180;-91
2021/11/09 05:58:40;;;;;;;16.23;8.47;;;8.10;94.00;;;;;;5053553;28;20267;-90
2021/11/09 06:01:06;;;;;;;17.73;9.37;;;8.10;94.00;;;;;;5053922;28;20589;-91
2021/11/09 06:03:32;;;;;;;14.33;8.97;;;8.10;94.00;;;;;;5035965;28;20184;-91
2021/11/09 06:05:57;;;;;;;26.97;9.67;;;8.10;94.00;;;;;;5055364;28;20549;-90
2021/11/09 06:08:23;;;;;;;17.23;9.03;;;8.00;94.00;;;;;;5039803;28;20203;-90
2021/11/09 06:10:51;;;;;;;22.20;8.17;;;8.10;94.00;;;;;;5039606;28;20210;-90
2021/11/09 06:13:17;;;;;;;15.77;10.03;;;8.00;94.00;;;;;;5039586;28;20524;-91
2021/11/09 06:15:43;;;;;;;21.43;11.60;;;8.00;94.10;;;;;;5039301;28;20183;-91
2021/11/09 06:18:09;;;;;;;21.33;11.67;;;8.00;94.10;;;;;;5039598;28;20554;-91
2021/11/09 06:20:35;;;;;;;22.83;11.00;;;8.10;94.10;;;;;;5057047;28;20196;-90
2021/11/09 06:23:01;;;;;;;25.90;12.77;;;8.00;94.10;;;;;;5039160;28;20212;-91
2021/11/09 06:25:26;;;;;;;32.70;13.83;;;8.00;94.10;;;;;;5039459;28;20699;-90
2021/11/09 06:27:53;;;;;;;28.63;13.83;;;7.90;94.10;;;;;;5039171;28;20239;-90
2021/11/09 06:30:20;;;;;;;26.80;13.30;;;7.90;94.20;;;;;;5039143;28;20249;-90
2021/11/09 06:32:46;;;;;;;30.13;14.53;;;7.90;94.20;;;;;;5040121;28;20168;-90
2021/11/09 06:35:12;;;;;;;27.10;13.60;;;7.80;94.20;;;;;;5039254;28;20274;-92
2021/11/09 06:37:38;;;;;;;20.53;12.87;;;7.80;94.20;;;;;;5039181;28;20338;-92
2021/11/09 06:40:05;;;;;;;22.33;12.60;;;7.70;94.20;;;;;;5038971;28;20616;-89
2021/11/09 06:42:32;;;;;;;20.07;13.20;;;7.70;94.20;;;;;;5039305;28;20561;-91
2021/11/09 06:44:57;;;;;;;23.70;12.07;;;7.60;94.20;;;;;;5039169;28;20652;-92
2021/11/09 06:47:23;;;;;;;23.37;12.87;;;7.60;94.20;;;;;;5038638;28;20176;-91
2021/11/09 06:49:49;;;;;;;28.23;14.00;;;7.50;94.20;;;;;;5038829;28;20287;-89
2021/11/09 06:52:15;;;;;;;26.17;13.63;;;7.50;94.30;;;;;;5039008;28;20226;-93
2021/11/09 06:54:42;;;;;;;21.93;12.63;;;7.50;94.30;;;;;;5039015;28;20219;-91
2021/11/09 06:57:09;;;;;;;22.27;12.50;;;7.50;94.40;;;;;;5038734;28;20178;-89
2021/11/09 06:59:35;;;;;;;20.03;11.20;;;7.60;94.50;;;;;;5038835;28;20211;-91
2021/11/09 07:02:01;;;;;;;24.30;12.90;;;7.60;94.50;;;;;;5038953;28;20172;-90
2021/11/09 07:04:27;;;;;;;24.73;12.97;;;7.60;94.50;;;;;;5038912;28;20202;-90
2021/11/09 07:06:52;;;;;;;25.73;14.50;;;7.60;94.50;;;;;;5038468;28;20172;-91
2021/11/09 07:09:18;;;;;;;22.27;13.90;;;7.60;94.40;;;;;;5038413;28;20239;-90
2021/11/09 07:11:44;;;;;;;23.47;14.30;;;7.60;94.50;;;;;;5038649;28;20584;-91
2021/11/09 07:14:10;;;;;;;25.90;14.50;;;7.60;94.50;;;;;;5056929;28;20171;-90
2021/11/09 07:16:37;;;;;;;33.23;16.70;;;7.60;94.50;;;;;;5037497;28;20604;-91
2021/11/09 07:19:03;;;;;;;28.90;14.87;;;7.70;94.50;;;;;;5038063;28;20302;-90
2021/11/09 07:21:31;;;;;;;27.93;15.57;;;7.60;94.50;;;;;;5038012;28;20180;-90
2021/11/09 07:23:57;;;;;;;30.03;15.40;;;7.60;94.50;;;;;;5037981;28;20644;-90
2021/11/09 07:26:24;;;;;;;27.93;16.27;;;7.60;94.50;;;;;;5037901;28;20183;-90
2021/11/09 07:28:50;;;;;;;28.57;15.77;;;7.50;94.50;;;;;;5037822;28;20219;-90
2021/11/09 07:31:17;;;;;;;35.63;17.10;;;7.50;94.60;;;;;;5038057;28;20545;-91
2021/11/09 07:33:44;;;;;;;37.63;16.30;;;7.60;94.50;;;;;;5037492;28;20270;-91
2021/11/09 07:36:10;;;;;;;32.50;16.70;;;7.60;94.50;;;;;;5037513;28;20172;-91
2021/11/09 07:38:35;;;;;;;31.97;15.67;;;7.60;94.50;;;;;;5037510;28;20218;-90
2021/11/09 07:41:01;;;;;;;32.67;16.50;;;7.70;94.50;;;;;;5037559;28;20180;-91
2021/11/09 07:43:27;;;;;;;38.13;18.07;;;7.60;94.50;;;;;;5037234;28;20207;-90
2021/11/09 07:45:53;;;;;;;27.43;14.67;;;7.70;94.50;;;;;;5037331;28;20172;-91
2021/11/09 07:48:19;;;;;;;28.23;16.60;;;7.70;94.50;;;;;;5037777;28;20199;-92
2021/11/09 07:50:45;;;;;;;35.73;17.90;;;7.70;94.40;;;;;;5037309;28;20179;-90
2021/11/09 07:53:18;;;;;;;33.73;17.90;;;7.70;94.40;;;;;;5037268;28;20654;-90
2021/11/09 07:55:49;;;;;;;27.77;16.53;;;7.70;94.40;;;;;;5037106;28;20198;-90
2021/11/09 07:58:29;;;;;;;30.83;16.80;;;7.80;94.30;;;;;;5036995;28;20180;-89
2021/11/09 08:01:06;;;;;;;30.20;15.87;;;7.80;94.30;;;;;;5037657;28;20172;-91
2021/11/09 08:04:02;;;;;;;33.00;17.23;;;7.90;94.30;;;;;;5036819;28;20172;-92
2021/11/09 08:09:26;;;;;;;44.80;17.47;;;8.00;94.10;;;;;;5054751;28;20214;-91
2021/11/09 08:11:53;;;;;;;30.17;17.63;;;8.00;94.10;;;;;;5036655;28;20164;-91
2021/11/09 08:14:19;;;;;;;35.53;17.70;;;8.00;94.10;;;;;;5053243;28;20179;-91
2021/11/09 08:16:47;;;;;;;40.53;18.23;;;8.10;94.10;;;;;;5036872;28;20199;-91
2021/11/09 08:19:14;;;;;;;36.27;17.87;;;8.20;94.00;;;;;;5054424;28;20294;-91
2021/11/09 08:21:39;;;;;;;34.00;18.17;;;8.20;94.00;;;;;;5036664;28;20266;-92
2021/11/09 08:24:08;;;;;;;40.30;18.37;;;8.20;94.00;;;;;;5037314;28;20214;-92
2021/11/09 08:26:34;;;;;;;35.50;17.83;;;8.30;93.90;;;;;;5036382;28;20176;-91
2021/11/09 08:29:04;;;;;;;38.80;19.77;;;8.30;93.90;;;;;;5036330;28;20215;-91
2021/11/09 08:31:34;;;;;;;45.43;20.27;;;8.40;93.80;;;;;;5036227;28;20178;-91
2021/11/09 08:34:02;;;;;;;41.07;20.47;;;8.40;93.70;;;;;;5037064;28;20164;-92
2021/11/09 08:36:29;;;;;;;51.53;22.77;;;8.50;93.70;;;;;;5036336;28;20249;-90
2021/11/09 08:38:58;;;;;;;39.23;21.83;;;8.50;93.40;;;;;;5036043;28;20683;-91
2021/11/09 08:41:27;;;;;;;44.67;20.23;;;8.50;93.20;;;;;;5036132;28;20182;-92
2021/11/09 08:46:31;;;;;;;42.40;22.00;;;8.70;93.00;;;;;;5054073;28;20180;-92
2021/11/09 08:48:57;;;;;;;42.70;20.47;;;8.70;92.90;;;;;;5036529;28;20628;-91
2021/11/09 08:51:23;;;;;;;39.80;19.87;;;8.80;92.40;;;;;;5035793;28;20200;-91
2021/11/09 08:54:10;;;;;;;45.90;21.73;;;8.80;92.50;;;;;;5053714;28;20168;-91
2021/11/09 09:04:41;;;;;;;38.20;18.67;;;9.00;91.60;;;;;;5054093;28;20213;-91
2021/11/09 09:07:07;;;;;;;35.03;16.23;;;9.00;91.20;;;;;;5035761;28;20180;-91
2021/11/09 09:09:33;;;;;;;35.87;18.37;;;9.00;90.80;;;;;;5035530;28;20354;-91
2021/11/09 09:11:59;;;;;;;41.47;19.47;;;9.10;90.80;;;;;;5053388;28;20168;-91
2021/11/09 09:14:25;;;;;;;41.57;18.93;;;9.20;91.00;;;;;;5035509;28;20175;-92
2021/11/09 09:16:53;;;;;;;40.77;18.10;;;9.30;90.50;;;;;;5035743;28;20245;-92
2021/11/09 09:19:24;;;;;;;33.47;16.80;;;9.30;90.10;;;;;;5035556;28;20251;-92
2021/11/09 09:21:55;;;;;;;25.23;12.37;;;9.30;89.60;;;;;;5053353;28;20148;-91
2021/11/09 09:55:51;;;;;;;40.40;16.17;;;10.00;86.40;;;;;;5057392;28;20176;-91
2021/11/09 09:58:17;;;;;;;26.57;14.00;;;10.00;86.90;;;;;;5056295;28;20183;-91
2021/11/09 10:00:44;;;;;;;30.43;14.07;;;10.00;86.60;;;;;;5039200;28;20176;-91
2021/11/09 10:03:10;;;;;;;30.80;13.80;;;10.00;86.20;;;;;;5057193;28;20235;-91
2021/11/09 10:05:39;;;;;;;35.50;14.10;;;10.00;86.70;;;;;;5039344;28;20655;-91
2021/11/09 10:08:12;;;;;;;30.47;14.20;;;10.10;86.00;;;;;;5039241;28;20201;-91
2021/11/09 10:10:38;;;;;;;35.03;15.43;;;10.20;86.60;;;;;;5038858;28;20153;-92
2021/11/09 10:13:11;;;;;;;26.10;12.73;;;10.10;85.90;;;;;;5039572;28;20195;-92
2021/11/09 10:15:42;;;;;;;36.03;14.47;;;10.20;85.60;;;;;;5038989;28;20160;-90
2021/11/09 10:18:11;;;;;;;29.83;14.53;;;10.20;85.30;;;;;;5039710;28;20165;-92
2021/11/09 10:20:46;;;;;;;28.50;13.63;;;10.30;84.60;;;;;;5057251;28;20191;-92
2021/11/09 10:23:24;;;;;;;25.43;11.87;;;10.30;83.80;;;;;;5039318;28;20175;-92
2021/11/09 10:25:52;;;;;;;34.60;13.80;;;10.40;83.90;;;;;;5038984;28;20168;-92
2021/11/09 10:28:23;;;;;;;36.03;14.73;;;10.50;83.70;;;;;;5055512;28;20571;-92
2021/11/09 10:31:03;;;;;;;28.23;12.93;;;10.60;84.20;;;;;;5039905;28;20171;-92
2021/11/09 10:33:35;;;;;;;27.47;12.43;;;10.70;83.20;;;;;;5038619;28;20164;-93
2021/11/09 10:36:02;;;;;;;32.27;13.33;;;10.60;82.50;;;;;;5055238;28;20620;-92
2021/11/09 10:38:32;;;;;;;26.97;11.73;;;10.70;83.70;;;;;;5056392;28;20203;-91
2021/11/09 10:41:04;;;;;;;29.87;10.90;;;10.70;81.70;;;;;;5038965;28;20178;-91
2021/11/09 10:43:31;;;;;;;23.70;10.93;;;10.70;81.80;;;;;;5038416;28;20179;-92
2021/11/09 10:45:57;;;;;;;26.60;9.03;;;10.80;81.40;;;;;;5038794;28;20207;-92
2021/11/09 10:48:24;;;;;;;22.03;10.20;;;10.80;81.90;;;;;;5037998;28;20664;-91
2021/11/09 10:50:52;;;;;;;29.60;10.90;;;10.80;81.40;;;;;;5038308;28;20329;-91
2021/11/09 11:04:09;;;;;;;22.03;9.10;;;11.10;79.40;;;;;;5055744;28;20160;-92
2021/11/09 11:06:42;;;;;;;31.40;9.37;;;11.00;78.40;;;;;;5038112;28;20168;-91
2021/11/09 11:09:10;;;;;;;29.03;9.40;;;11.10;79.00;;;;;;5038628;28;20212;-91
2021/11/09 11:11:44;;;;;;;29.43;10.93;;;11.20;78.90;;;;;;5037962;28;20176;-91
2021/11/09 11:14:22;;;;;;;19.00;8.20;;;11.30;80.20;;;;;;5037977;28;20182;-92
2021/11/09 11:16:49;;;;;;;21.17;7.47;;;11.30;78.10;;;;;;5037619;28;20156;-92
2021/11/09 11:19:19;;;;;;;24.07;8.50;;;11.20;75.90;;;;;;5056112;28;20608;-91
2021/11/09 11:21:47;;;;;;;25.17;9.20;;;11.20;77.60;;;;;;5040257;28;20187;-90
2021/11/09 11:24:14;;;;;;;30.57;10.33;;;11.30;78.40;;;;;;5039165;28;20180;-91
2021/11/09 11:26:42;;;;;;;32.60;9.80;;;11.30;78.10;;;;;;5039523;28;20182;-90
2021/11/09 11:29:08;;;;;;;18.60;7.10;;;11.30;77.00;;;;;;5037647;28;20687;-90
2021/11/09 11:31:34;;;;;;;23.37;7.20;;;11.30;75.70;;;;;;5057478;28;20226;-90
2021/11/09 11:34:00;;;;;;;31.80;8.70;;;11.30;77.60;;;;;;5038908;28;20179;-91
2021/11/09 11:36:26;;;;;;;22.87;9.40;;;11.30;76.10;;;;;;5042117;28;20662;-92
2021/11/09 11:38:57;;;;;;;24.07;9.03;;;11.30;77.00;;;;;;5044577;28;20233;-92
2021/11/09 11:41:36;;;;;;;32.17;9.70;;;11.30;76.30;;;;;;5040824;28;20262;-92
2021/11/09 11:44:07;;;;;;;33.50;11.17;;;11.40;76.90;;;;;;5042444;28;20172;-90
2021/11/09 11:46:33;;;;;;;21.90;8.47;;;11.50;76.40;;;;;;5037847;28;20188;-90
2021/11/09 11:49:11;;;;;;;35.57;8.07;;;11.50;76.80;;;;;;5039691;28;20611;-89
2021/11/09 11:51:40;;;;;;;18.63;7.33;;;11.60;76.00;;;;;;5039304;28;20160;-91
2021/11/09 11:54:07;;;;;;;27.33;7.20;;;11.70;75.00;;;;;;5044361;28;20687;-92
2021/11/09 11:56:42;;;;;;;25.40;8.57;;;11.60;74.30;;;;;;5059289;28;20168;-92
2021/11/09 11:59:34;;;;;;;20.40;7.20;;;11.60;75.00;;;;;;5040427;28;20195;-92
2021/11/09 12:02:08;;;;;;;26.33;6.83;;;11.70;75.70;;;;;;5039078;28;20226;-93
2021/11/09 12:04:54;;;;;;;15.17;6.00;;;11.70;75.00;;;;;;5041350;28;20170;-91
2021/11/09 12:07:41;;;;;;;17.17;6.80;;;11.70;72.90;;;;;;5043427;28;20168;-91
2021/11/09 12:10:08;;;;;;;23.30;7.67;;;11.80;75.20;;;;;;5041357;28;20207;-92
2021/11/09 12:12:35;;;;;;;17.10;6.10;;;11.80;73.80;;;;;;5041368;28;20176;-91
2021/11/09 12:15:06;;;;;;;20.20;6.43;;;11.70;74.10;;;;;;5042600;28;20568;-92
2021/11/09 12:17:32;;;;;;;20.83;6.67;;;11.80;73.90;;;;;;5040471;28;20172;-91
2021/11/09 12:20:05;;;;;;;22.73;6.20;;;11.80;74.10;;;;;;5040729;28;20212;-92
2021/11/09 12:22:50;;;;;;;18.77;6.27;;;11.80;72.90;;;;;;5044638;28;20164;-92
2021/11/09 12:25:38;;;;;;;20.80;6.23;;;11.80;72.80;;;;;;5043495;28;20172;-93
2021/11/09 12:28:10;;;;;;;22.53;7.43;;;11.70;72.80;;;;;;5044162;28;20333;-91
2021/11/09 12:30:48;;;;;;;32.33;8.33;;;11.90;73.20;;;;;;5045711;28;20156;-92
2021/11/09 12:33:26;;;;;;;14.27;6.03;;;11.90;74.10;;;;;;5043832;28;20187;-91
2021/11/09 12:35:57;;;;;;;25.77;7.27;;;12.00;72.90;;;;;;5043321;28;20241;-93
2021/11/09 12:38:35;;;;;;;22.97;6.90;;;12.10;74.40;;;;;;5040910;28;20264;-92
2021/11/09 12:41:11;;;;;;;22.83;6.90;;;12.00;72.80;;;;;;5048951;28;20250;-94
2021/11/09 12:43:46;;;;;;;20.27;7.03;;;12.00;72.60;;;;;;5047168;28;20183;-92
2021/11/09 12:49:07;;;;;;;17.63;6.97;;;12.00;72.90;;;;;;5064274;28;20230;-92
2021/11/09 12:51:34;;;;;;;24.47;6.80;;;12.10;72.30;;;;;;5042648;28;20171;-93
2021/11/09 12:54:06;;;;;;;24.53;6.83;;;12.00;73.00;;;;;;5043782;28;20176;-93
2021/11/09 12:56:41;;;;;;;21.47;7.10;;;12.00;72.40;;;;;;5043211;28;20171;-93
2021/11/09 12:59:19;;;;;;;17.93;6.83;;;12.00;72.10;;;;;;5043803;28;20291;-94
2021/11/09 13:10:16;;;;;;;21.60;5.93;;;12.00;73.10;;;;;;5029209;28;20215;-94
2021/11/09 13:12:42;;;;;;;19.40;7.07;;;12.00;71.30;;;;;;5044926;28;20168;-94
2021/11/09 13:15:13;;;;;;;16.77;5.93;;;12.00;71.90;;;;;;5040104;28;20574;-92
2021/11/09 13:17:46;;;;;;;18.33;6.07;;;11.90;72.90;;;;;;5039669;28;20180;-93
2021/11/09 13:21:12;;;;;;;24.13;6.63;;;11.90;70.80;;;;;;5039923;28;20216;-90
2021/11/09 13:23:15;;;;;;;28.03;7.60;;;11.90;72.30;;;;;;5046087;28;20192;-95
2021/11/09 13:25:58;;;;;;;25.60;6.97;;;11.90;72.90;;;;;;5038711;28;20172;-92
2021/11/09 13:28:26;;;;;;;16.43;6.97;;;12.00;72.90;;;;;;5036708;28;20672;-90
2021/11/09 13:30:54;;;;;;;24.37;6.20;;;12.00;74.00;;;;;;5036351;28;20183;-90
2021/11/09 13:33:22;;;;;;;20.33;6.47;;;11.90;73.50;;;;;;5036296;28;20176;-91
2021/11/09 13:35:48;;;;;;;24.00;7.97;;;11.80;72.10;;;;;;5036460;28;20203;-92
2021/11/09 13:38:25;;;;;;;21.40;6.90;;;11.80;72.00;;;;;;5054086;28;20254;-92
2021/11/09 13:40:58;;;;;;;22.40;6.60;;;11.80;71.50;;;;;;5036375;28;20179;-92
2021/11/09 13:43:31;;;;;;;23.97;6.27;;;11.70;71.40;;;;;;5036200;28;20176;-91
2021/11/09 13:46:14;;;;;;;17.27;6.00;;;11.70;71.50;;;;;;5036898;28;20522;-91
2021/11/09 13:48:44;;;;;;;17.57;6.13;;;11.70;72.60;;;;;;5036075;28;20207;-92
2021/11/09 13:51:12;;;;;;;19.00;6.87;;;11.70;72.20;;;;;;5036447;28;20183;-88
2021/11/09 13:53:41;;;;;;;24.03;6.73;;;11.70;72.20;;;;;;5036089;28;20184;-89
2021/11/09 13:56:12;;;;;;;20.20;5.67;;;11.70;72.70;;;;;;5052964;28;20172;-90
2021/11/09 13:58:38;;;;;;;24.90;6.80;;;11.60;71.00;;;;;;5035172;28;20199;-89
2021/11/09 14:01:04;;;;;;;21.93;6.30;;;11.60;71.20;;;;;;5035194;28;20706;-88
2021/11/09 14:16:37;;;;;;;18.47;5.73;;;11.30;72.70;;;;;;5053490;28;20298;-89
2021/11/09 14:19:13;;;;;;;19.93;6.20;;;11.30;73.30;;;;;;5052804;28;20223;-89
2021/11/09 14:21:45;;;;;;;27.40;6.20;;;11.20;73.40;;;;;;5035121;28;20250;-89
2021/11/09 14:24:14;;;;;;;15.93;6.23;;;11.20;72.80;;;;;;5035045;28;20179;-89
2021/11/09 14:26:41;;;;;;;19.97;6.57;;;11.10;73.10;;;;;;5036414;28;20577;-89
2021/11/09 14:29:24;;;;;;;20.77;6.30;;;11.10;73.40;;;;;;5056348;28;20204;-88
2021/11/09 14:32:15;;;;;;;18.43;5.13;;;11.00;74.80;;;;;;5056426;28;20174;-88
2021/11/09 14:35:02;;;;;;;23.73;6.07;;;11.00;75.00;;;;;;5038470;28;20168;-89
2021/11/09 14:37:35;;;;;;;22.27;6.30;;;10.90;75.60;;;;;;5038501;28;20164;-89
2021/11/09 14:40:12;;;;;;;27.83;6.77;;;10.80;75.30;;;;;;5038471;28;20732;-88
2021/11/09 14:48:13;;;;;;;20.53;6.00;;;10.80;76.00;;;;;;5056456;28;20203;-88
2021/11/09 14:53:30;;;;;;;23.67;6.67;;;10.60;76.80;;;;;;5056453;28;20609;-89
2021/11/09 14:56:09;;;;;;;19.60;7.20;;;10.50;76.90;;;;;;5038136;28;20285;-87
2021/11/09 14:58:51;;;;;;;23.50;6.50;;;10.40;77.90;;;;;;5038407;28;20680;-91
2021/11/09 15:01:42;;;;;;;24.07;6.97;;;10.30;78.50;;;;;;5056212;28;20168;-90
2021/11/09 15:04:14;;;;;;;23.93;6.67;;;10.30;77.70;;;;;;5038473;28;20180;-90
2021/11/09 15:06:53;;;;;;;20.60;6.33;;;10.30;77.40;;;;;;5038780;28;20548;-90
2021/11/09 15:26:18;;;;;;;29.00;7.27;;;9.60;80.90;;;;;;5055621;28;20179;-88
2021/11/09 15:29:38;;;;;;;21.70;7.50;;;9.50;81.10;;;;;;5037544;28;20303;-89
2021/11/09 15:31:37;;;;;;;17.33;6.90;;;9.50;81.00;;;;;;5041164;28;20211;-89
2021/11/09 15:36:56;;;;;;;21.70;7.73;;;9.40;80.80;;;;;;5055973;28;20221;-89
2021/11/09 15:39:25;;;;;;;17.60;6.07;;;9.50;80.10;;;;;;5054571;28;20192;-88
2021/11/09 15:41:52;;;;;;;17.13;7.10;;;9.60;79.80;;;;;;5037682;28;20184;-90
2021/11/09 15:44:18;;;;;;;20.70;6.30;;;9.50;79.80;;;;;;5038230;28;20183;-91
2021/11/09 15:46:45;;;;;;;20.03;6.10;;;9.50;80.00;;;;;;5037831;28;20187;-89
2021/11/09 15:49:11;;;;;;;21.73;6.70;;;9.40;79.80;;;;;;5037073;28;20691;-88
2021/11/09 15:51:40;;;;;;;23.00;6.37;;;9.40;80.10;;;;;;5038040;28;20195;-89
2021/11/09 15:54:08;;;;;;;26.33;6.60;;;9.30;80.50;;;;;;5037438;28;20203;-89
2021/11/09 15:56:36;;;;;;;20.37;5.67;;;9.20;80.90;;;;;;5037589;28;20245;-90
2021/11/09 15:59:02;;;;;;;18.43;6.20;;;9.10;81.30;;;;;;5037380;28;20257;-90
2021/11/09 16:01:27;;;;;;;23.10;6.80;;;9.00;81.40;;;;;;5037501;28;20176;-89
2021/11/09 16:03:54;;;;;;;18.10;6.50;;;9.00;81.60;;;;;;5037208;28;20234;-88
2021/11/09 16:06:19;;;;;;;27.93;6.83;;;8.80;81.90;;;;;;5036814;28;20270;-88